Evanston, WY

5:28 AM MDT on July 23, 2014 (GMT -0600)
Evanston-Uinta County Burns (KEVW) Elev 7142 ft | 41.27 °N, 111.03 °W | Change Station

Current weather conditions updated 35 minutes ago

Clear
Clear
62 °F
Feels Like 62 °F
N
7
Wind Variable Wind from SSE

Today is forecast to be nearly the same temperature as yesterday.

Today
High -- | Low -- °F
--% Chance of Precip.
Yesterday
High -- | Low -- °F
Precip. -- in
6:11 AM 8:49 PM
Waning Crescent, 11% visible
Pressure 30.03 in
Visibility 10.0 miles
Clouds Clear
Dew Point 27 °F
Humidity 26%
Rainfall 0.00 in
Snow Depth Not available.
UV 0 out of 12
Pollen 5.20 out of 12
Air Quality Not available.
Flu Activity Not available.
METAR KEVW 231053Z AUTO 15006KT 10SM CLR 17/M03 A3036 RMK AO2 SLP168 T01671028

More Conditions Fewer Conditions

Pressure 30.03 in
Visibility 10.0 miles
Clouds Clear
Dew Point 27 °F
Humidity 26%
Rainfall 0.00 in
Snow Depth Not available.
UV 0 out of 12
Pollen 5.20 out of 12
Air Quality Not available.
Flu Activity Not available.
METAR KEVW 231053Z AUTO 15006KT 10SM CLR 17/M03 A3036 RMK AO2 SLP168 T01671028

More Conditions Fewer Conditions

10-Day Weather Forecast

Almanac

Astronomy

Jul. 23, 2014 Rise Set
Actual Time 6:11 AM MDT 8:49 PM MDT
Civil Twilight 5:39 AM MDT 9:21 PM MDT
Nautical Twilight 4:58 AM MDT 10:01 PM MDT
Astronomical Twilight 4:13 AM MDT 10:46 PM MDT
Moon 3:33 AM MDT 6:21 PM MDT
Length of Visible Light 15h 42m
Length of Day
14h 38m
Tomorrow will be 1m 47s shorter.
Waning Crescent, 11% of the Moon is Illuminated
Today
Waning Crescent
Jul 26
New
Aug 3
First Quarter
Aug 10
Full
Aug 17
Last Quarter

Today's Extremes

State Highs State Lows

Community

WunderPhotos

Upload Photos

1,736,560 photos uploaded!

Nearby

Snow Depth

Station Depth Elevation
Hams Fork 0 in 7840 ft
Kelley R.S. 0 in 8180 ft
Salt River Summit 0 in 7600 ft
Cottonwood Creek 0 in 7600 ft
Willow Creek 1 in 8450 ft

Earthquake Activity

City Distance Mag. Time & Date
No recent earthquake activity has been reported nearby.
Minimum magnitude displayed is 2.5.

Coastal Water Temperatures

Place Temperature
No Stations Reporting

Nearby Weather Stations

Station Location Temp. Dew Point Humidity Wind Precip. Elev Updated Type
HADS EVANSTON 1E WY, Evanston, WY 53 °F 34 °F 49% SE  at  1 mph 0.00 in / hr 6825 ft 4:15 AM MDT MADIS
MesoWest MILIS2 , Evanston, WY 51 °F - - North  at  - 0.00 in / hr 6974 ft 4:00 AM MDT MADIS
MesoWest BUFFALO JUMP , Woodruff, UT 59 °F 31 °F 34% South  at  3 mph 0.00 in / hr 6686 ft 4:00 AM MDT MADIS
MesoWest CHICKEN RIDGE , Woodruff, UT 63 °F 28 °F 26% West  at  6 mph 0.00 in / hr 7656 ft 4:00 AM MDT MADIS
MesoWest LEROY1 , Fort Bridger, WY 52 °F - - North  at  - 0.00 in / hr 6703 ft 4:00 AM MDT MADIS

Show More Stations Show Fewer Stations